Time;durP1;ratioP1;P1;durP2;ratioP2;P2;SDS_P1;SDS_P2;PMS_P1;PMS_P2;Temp;Humidity;BMP_temperature;BMP_pressure;BME280_temperature;BME280_humidity;BME280_pressure;Samples;Min_cycle;Max_cycle;Signal;HPM_P1;HPM_P2
2022/09/28 00:01:54;;;;;;;1.95;0.73;;;;;;;;;;4983248;28;20037;-80
2022/09/28 00:04:20;;;;;;;2.45;1.10;;;;;;;;;;4999932;28;20399;-80
2022/09/28 00:06:46;;;;;;;3.17;0.90;;;;;;;;;;4983221;28;20033;-80
2022/09/28 00:09:12;;;;;;;1.92;0.68;;;;;;;;;;4999827;28;20514;-80
2022/09/28 00:11:38;;;;;;;3.45;0.73;;;;;;;;;;4998612;28;20040;-80
2022/09/28 00:14:04;;;;;;;1.77;0.80;;;;;;;;;;4998642;28;20025;-80
2022/09/28 00:16:33;;;;;;;1.70;0.60;;;;;;;;;;5015935;28;20037;-80
2022/09/28 00:18:58;;;;;;;1.88;0.73;;;;;;;;;;4999488;28;20080;-80
2022/09/28 00:21:28;;;;;;;1.70;0.70;;;;;;;;;;5015823;28;20104;-80
2022/09/28 00:26:52;;;;;;;2.20;0.60;;;;;;;;;;5018410;28;20037;-81
2022/09/28 00:29:23;;;;;;;2.15;0.60;;;;;;;;;;5015439;28;20033;-81
2022/09/28 00:32:01;;;;;;;1.45;0.50;;;;;;;;;;5017770;28;20041;-81
2022/09/28 00:34:27;;;;;;;1.75;0.70;;;;;;;;;;5019836;28;20033;-82
2022/09/28 00:36:52;;;;;;;1.98;0.73;;;;;;;;;;5018389;28;20075;-81
2022/09/28 00:39:18;;;;;;;1.58;0.60;;;;;;;;;;5018728;28;20603;-81
2022/09/28 00:41:44;;;;;;;2.08;0.90;;;;;;;;;;5001606;28;20403;-80
2022/09/28 00:44:25;;;;;;;1.67;0.50;;;;;;;;;;5018352;28;20029;-81
2022/09/28 00:46:56;;;;;;;1.73;0.65;;;;;;;;;;5051315;28;20498;-81
2022/09/28 00:49:29;;;;;;;1.67;0.82;;;;;;;;;;5021607;28;20029;-81
2022/09/28 00:51:54;;;;;;;1.42;0.70;;;;;;;;;;5005698;28;20082;-80
2022/09/28 00:54:19;;;;;;;1.77;0.43;;;;;;;;;;5036038;28;20040;-80
2022/09/28 00:56:45;;;;;;;2.78;0.73;;;;;;;;;;5017809;28;20399;-80
2022/09/28 00:59:10;;;;;;;1.52;0.50;;;;;;;;;;5002193;28;20044;-80
2022/09/28 01:01:36;;;;;;;1.85;0.68;;;;;;;;;;5001234;28;20037;-80
2022/09/28 01:04:03;;;;;;;1.70;0.60;;;;;;;;;;5001778;28;20369;-80
2022/09/28 01:06:30;;;;;;;2.97;0.60;;;;;;;;;;5018227;28;20032;-80
2022/09/28 01:08:57;;;;;;;1.20;0.47;;;;;;;;;;5018075;28;20037;-80
2022/09/28 01:11:22;;;;;;;2.30;0.85;;;;;;;;;;5001678;28;20036;-80
2022/09/28 01:13:48;;;;;;;1.45;0.50;;;;;;;;;;5017559;28;20021;-80
2022/09/28 01:16:48;;;;;;;2.30;0.73;;;;;;;;;;5017986;28;20036;-80
2022/09/28 01:19:41;;;;;;;1.65;0.60;;;;;;;;;;5034758;28;20037;-80
2022/09/28 01:22:40;;;;;;;2.78;0.85;;;;;;;;;;5020489;28;20656;-79
2022/09/28 01:25:19;;;;;;;3.03;0.70;;;;;;;;;;5033765;28;20029;-80
2022/09/28 01:27:53;;;;;;;4.05;1.05;;;;;;;;;;5001384;28;20029;-79
2022/09/28 01:30:19;;;;;;;1.23;0.40;;;;;;;;;;5001546;28;20119;-80
2022/09/28 01:32:54;;;;;;;2.08;0.57;;;;;;;;;;5001133;28;20119;-80
2022/09/28 01:35:25;;;;;;;1.25;0.65;;;;;;;;;;5001117;28;20025;-81
2022/09/28 01:38:24;;;;;;;1.33;0.50;;;;;;;;;;5017560;28;20399;-79
2022/09/28 01:40:49;;;;;;;1.63;0.50;;;;;;;;;;5017537;28;20052;-79
2022/09/28 01:43:26;;;;;;;2.10;0.90;;;;;;;;;;5017046;28;20487;-80
2022/09/28 01:46:12;;;;;;;4.35;1.20;;;;;;;;;;5001172;28;20040;-80
2022/09/28 01:48:45;;;;;;;2.38;0.90;;;;;;;;;;4998297;28;20028;-80
2022/09/28 01:51:43;;;;;;;1.38;0.20;;;;;;;;;;5037418;28;20039;-80
2022/09/28 01:54:13;;;;;;;1.80;0.80;;;;;;;;;;5018459;28;20394;-80
2022/09/28 01:57:08;;;;;;;2.15;0.82;;;;;;;;;;5017292;28;20037;-80
2022/09/28 01:59:34;;;;;;;1.75;0.40;;;;;;;;;;5003286;28;20024;-79
2022/09/28 02:02:11;;;;;;;2.05;0.68;;;;;;;;;;5017766;28;20116;-79
2022/09/28 02:04:43;;;;;;;1.27;0.47;;;;;;;;;;5016874;28;20464;-80
2022/09/28 02:07:20;;;;;;;2.13;0.50;;;;;;;;;;5001328;28;20048;-79
2022/09/28 02:09:56;;;;;;;1.52;0.52;;;;;;;;;;5017737;28;20032;-80
2022/09/28 02:12:34;;;;;;;1.55;0.60;;;;;;;;;;5000963;28;20037;-80
2022/09/28 02:15:14;;;;;;;1.85;0.50;;;;;;;;;;5017069;28;20029;-80
2022/09/28 02:17:39;;;;;;;1.30;0.40;;;;;;;;;;5017246;28;20025;-80
2022/09/28 02:20:06;;;;;;;1.52;0.43;;;;;;;;;;5017191;28;20021;-80
2022/09/28 02:22:44;;;;;;;1.73;0.60;;;;;;;;;;5017482;28;20033;-80
2022/09/28 02:25:12;;;;;;;2.05;0.40;;;;;;;;;;5016306;28;20025;-80
2022/09/28 02:28:09;;;;;;;2.95;0.60;;;;;;;;;;5017530;28;20041;-80
2022/09/28 02:30:35;;;;;;;2.40;0.52;;;;;;;;;;4996794;28;20048;-80
2022/09/28 02:33:17;;;;;;;1.30;0.55;;;;;;;;;;4976925;28;20037;-80
2022/09/28 02:35:43;;;;;;;0.95;0.35;;;;;;;;;;5031804;28;20144;-80
2022/09/28 02:38:12;;;;;;;1.25;0.30;;;;;;;;;;4984273;28;20475;-79
2022/09/28 02:40:37;;;;;;;1.25;0.38;;;;;;;;;;4984419;28;20035;-80
2022/09/28 02:43:21;;;;;;;2.10;0.80;;;;;;;;;;5000369;28;20116;-80
2022/09/28 02:45:56;;;;;;;1.00;0.57;;;;;;;;;;5033323;28;20439;-81
2022/09/28 02:48:30;;;;;;;0.65;0.40;;;;;;;;;;5028251;28;20036;-80
2022/09/28 02:51:08;;;;;;;1.55;0.50;;;;;;;;;;5020164;28;20024;-81
2022/09/28 02:53:54;;;;;;;1.30;0.52;;;;;;;;;;5053229;28;20039;-80
2022/09/28 02:56:42;;;;;;;1.38;0.52;;;;;;;;;;5015135;28;20436;-80
2022/09/28 02:59:10;;;;;;;1.13;0.40;;;;;;;;;;4997009;28;20033;-80
2022/09/28 03:01:48;;;;;;;0.43;0.13;;;;;;;;;;4997322;28;20379;-80
2022/09/28 03:04:30;;;;;;;1.35;0.40;;;;;;;;;;5013849;28;20033;-80
2022/09/28 03:07:03;;;;;;;0.73;0.32;;;;;;;;;;4996840;28;20071;-80
2022/09/28 03:09:36;;;;;;;1.65;0.60;;;;;;;;;;4981325;28;20116;-80
2022/09/28 03:12:12;;;;;;;0.98;0.47;;;;;;;;;;4981059;28;20511;-80
2022/09/28 03:14:37;;;;;;;1.83;0.40;;;;;;;;;;4980533;28;20387;-80
2022/09/28 03:17:03;;;;;;;0.75;0.20;;;;;;;;;;4980693;28;20032;-80
2022/09/28 03:19:32;;;;;;;1.33;0.50;;;;;;;;;;4980644;28;20030;-80
2022/09/28 03:21:58;;;;;;;0.93;0.55;;;;;;;;;;4980555;28;20072;-81
2022/09/28 03:24:23;;;;;;;1.55;0.40;;;;;;;;;;4981845;28;20104;-80
2022/09/28 03:26:49;;;;;;;1.73;0.50;;;;;;;;;;4984175;28;20087;-79
2022/09/28 03:29:14;;;;;;;0.80;0.38;;;;;;;;;;5016793;28;20037;-80
2022/09/28 03:31:40;;;;;;;1.00;0.30;;;;;;;;;;4984821;28;20026;-80
2022/09/28 03:34:05;;;;;;;1.67;0.43;;;;;;;;;;5003813;28;20075;-80
2022/09/28 03:36:31;;;;;;;1.23;0.40;;;;;;;;;;5003262;28;20420;-80
2022/09/28 03:38:58;;;;;;;1.25;0.40;;;;;;;;;;5036397;28;20357;-80
2022/09/28 03:41:23;;;;;;;1.33;0.70;;;;;;;;;;5019756;28;20025;-80
2022/09/28 03:43:49;;;;;;;2.50;0.57;;;;;;;;;;5036172;28;20029;-80
2022/09/28 03:46:14;;;;;;;1.20;0.50;;;;;;;;;;5036052;28;20041;-80
2022/09/28 03:48:40;;;;;;;1.63;0.43;;;;;;;;;;5033362;28;20028;-80
2022/09/28 03:51:08;;;;;;;0.95;0.20;;;;;;;;;;5022701;28;20036;-80
2022/09/28 03:53:34;;;;;;;1.58;0.43;;;;;;;;;;5023528;28;20078;-80
2022/09/28 03:56:07;;;;;;;1.02;0.30;;;;;;;;;;5004009;28;20041;-79
2022/09/28 03:58:32;;;;;;;0.98;0.30;;;;;;;;;;4983903;28;20025;-80
2022/09/28 04:01:02;;;;;;;1.50;0.45;;;;;;;;;;4983370;28;20490;-79
2022/09/28 04:03:28;;;;;;;0.90;0.35;;;;;;;;;;4983675;28;20862;-80
2022/09/28 04:05:53;;;;;;;2.42;0.85;;;;;;;;;;4998992;28;20045;-80
2022/09/28 04:08:19;;;;;;;1.25;0.43;;;;;;;;;;4999697;28;20030;-80
2022/09/28 04:10:44;;;;;;;0.70;0.20;;;;;;;;;;4999747;28;20665;-80
2022/09/28 04:13:10;;;;;;;0.73;0.30;;;;;;;;;;4983077;28;20035;-79
2022/09/28 04:15:37;;;;;;;2.05;0.75;;;;;;;;;;4982965;28;20053;-80
2022/09/28 04:18:03;;;;;;;0.82;0.28;;;;;;;;;;4999758;28;20069;-80
2022/09/28 04:20:29;;;;;;;1.40;0.30;;;;;;;;;;4999188;28;20025;-79
2022/09/28 04:22:54;;;;;;;0.88;0.35;;;;;;;;;;4999155;28;20051;-79
2022/09/28 04:25:19;;;;;;;2.10;0.43;;;;;;;;;;4999315;28;20387;-80
2022/09/28 04:30:29;;;;;;;0.88;0.30;;;;;;;;;;5004574;28;20037;-80
2022/09/28 04:32:55;;;;;;;0.57;0.30;;;;;;;;;;4993870;28;20167;-81
2022/09/28 04:35:20;;;;;;;1.40;0.30;;;;;;;;;;5002077;28;20068;-80
2022/09/28 04:37:46;;;;;;;0.75;0.32;;;;;;;;;;5001047;28;20037;-81
2022/09/28 04:40:11;;;;;;;0.80;0.30;;;;;;;;;;5018679;28;20036;-80
2022/09/28 04:42:37;;;;;;;0.43;0.20;;;;;;;;;;5002070;28;20368;-79
2022/09/28 04:45:03;;;;;;;0.80;0.20;;;;;;;;;;5002118;28;20399;-80
2022/09/28 04:47:29;;;;;;;0.70;0.30;;;;;;;;;;4989937;28;20024;-80
2022/09/28 04:49:54;;;;;;;2.17;0.40;;;;;;;;;;5022031;28;20043;-80
2022/09/28 04:52:20;;;;;;;0.80;0.30;;;;;;;;;;5038148;28;20123;-81
2022/09/28 04:54:45;;;;;;;1.02;0.30;;;;;;;;;;5012538;28;20403;-80
2022/09/28 04:57:11;;;;;;;1.55;0.35;;;;;;;;;;4998501;28;20491;-80
2022/09/28 04:59:36;;;;;;;0.30;0.13;;;;;;;;;;4982494;28;20400;-80
2022/09/28 05:02:02;;;;;;;1.00;0.43;;;;;;;;;;4998455;28;20057;-80
2022/09/28 05:04:29;;;;;;;1.40;0.47;;;;;;;;;;4982048;28;20037;-80
2022/09/28 05:06:54;;;;;;;1.25;0.40;;;;;;;;;;4982809;28;20033;-80
2022/09/28 05:09:20;;;;;;;2.13;0.43;;;;;;;;;;4982257;28;20479;-79
2022/09/28 05:11:48;;;;;;;2.55;0.40;;;;;;;;;;4998642;28;20052;-79
2022/09/28 05:14:13;;;;;;;1.48;0.28;;;;;;;;;;4981955;28;20044;-80
2022/09/28 05:16:39;;;;;;;0.45;0.20;;;;;;;;;;4998482;28;20037;-80
2022/09/28 05:19:05;;;;;;;0.73;0.30;;;;;;;;;;4982099;28;20022;-80
2022/09/28 05:21:31;;;;;;;1.15;0.25;;;;;;;;;;4982636;28;20084;-80
2022/09/28 05:23:57;;;;;;;0.82;0.30;;;;;;;;;;4981821;28;20041;-80
2022/09/28 05:26:22;;;;;;;1.25;0.30;;;;;;;;;;4966195;28;20128;-81
2022/09/28 05:28:48;;;;;;;0.95;0.25;;;;;;;;;;4997944;28;20036;-80
2022/09/28 05:31:14;;;;;;;0.57;0.30;;;;;;;;;;5009150;28;20479;-80
2022/09/28 05:33:39;;;;;;;0.25;0.15;;;;;;;;;;4997993;28;20087;-80
2022/09/28 05:36:07;;;;;;;1.15;0.47;;;;;;;;;;4998001;28;20037;-80
2022/09/28 05:38:33;;;;;;;0.95;0.28;;;;;;;;;;4997846;28;20037;-80
2022/09/28 05:40:58;;;;;;;1.13;0.40;;;;;;;;;;4981678;28;20395;-80
2022/09/28 05:43:24;;;;;;;0.57;0.20;;;;;;;;;;4981159;28;20135;-80
2022/09/28 05:45:49;;;;;;;1.25;0.32;;;;;;;;;;4981614;28;20104;-81
2022/09/28 05:48:15;;;;;;;1.17;0.30;;;;;;;;;;5001388;28;20021;-80
2022/09/28 05:50:40;;;;;;;1.02;0.55;;;;;;;;;;5020759;28;20028;-80
2022/09/28 05:53:07;;;;;;;1.42;0.57;;;;;;;;;;5020869;28;20024;-80
2022/09/28 05:55:32;;;;;;;1.42;0.45;;;;;;;;;;5005668;28;20045;-80
2022/09/28 05:57:59;;;;;;;1.20;0.30;;;;;;;;;;4981079;28;20493;-80
2022/09/28 06:00:27;;;;;;;1.33;0.50;;;;;;;;;;5014227;28;20026;-79
2022/09/28 06:03:00;;;;;;;2.83;0.63;;;;;;;;;;4981520;28;20083;-80
2022/09/28 06:05:27;;;;;;;0.95;0.40;;;;;;;;;;4981411;28;20040;-81
2022/09/28 06:07:54;;;;;;;1.40;0.30;;;;;;;;;;4998421;28;20471;-81
2022/09/28 06:10:27;;;;;;;1.33;0.47;;;;;;;;;;5000918;28;20033;-80
2022/09/28 06:12:56;;;;;;;1.75;0.68;;;;;;;;;;5033558;28;20029;-81
2022/09/28 06:15:22;;;;;;;7.57;2.30;;;;;;;;;;5014230;28;20044;-80
2022/09/28 06:18:04;;;;;;;7.75;3.97;;;;;;;;;;4981662;28;20033;-81
2022/09/28 06:20:31;;;;;;;9.32;5.30;;;;;;;;;;4998909;28;20033;-80
2022/09/28 06:22:57;;;;;;;18.75;6.07;;;;;;;;;;4999994;28;20038;-80
2022/09/28 06:25:23;;;;;;;9.57;5.57;;;;;;;;;;5016250;28;20079;-81
2022/09/28 06:28:02;;;;;;;8.85;5.80;;;;;;;;;;5001123;28;20029;-80
2022/09/28 06:30:29;;;;;;;8.57;5.93;;;;;;;;;;5018219;28;20170;-80
2022/09/28 06:32:55;;;;;;;10.63;6.03;;;;;;;;;;5017743;28;20021;-80
2022/09/28 06:35:21;;;;;;;7.57;5.50;;;;;;;;;;5016934;28;20037;-80
2022/09/28 06:37:51;;;;;;;9.18;5.10;;;;;;;;;;5001084;28;20056;-80
2022/09/28 06:40:17;;;;;;;8.52;5.50;;;;;;;;;;4997129;28;20025;-80
2022/09/28 06:42:42;;;;;;;8.98;5.35;;;;;;;;;;5031539;23;20320;-79
2022/09/28 06:45:09;;;;;;;9.07;5.43;;;;;;;;;;4979035;28;20084;-80
2022/09/28 06:47:35;;;;;;;7.30;4.65;;;;;;;;;;4979795;28;20033;-80
2022/09/28 06:50:00;;;;;;;7.47;4.38;;;;;;;;;;4979849;28;20030;-80
2022/09/28 06:52:26;;;;;;;6.90;4.40;;;;;;;;;;4996306;28;20030;-81
2022/09/28 06:54:51;;;;;;;8.80;4.45;;;;;;;;;;4992570;28;20042;-80
2022/09/28 06:57:17;;;;;;;6.85;4.20;;;;;;;;;;4975740;28;20030;-81
2022/09/28 06:59:42;;;;;;;5.35;3.97;;;;;;;;;;4977948;28;20038;-81
2022/09/28 07:02:14;;;;;;;10.38;4.03;;;;;;;;;;4981163;28;20022;-83
2022/09/28 07:04:42;;;;;;;8.15;3.22;;;;;;;;;;4982303;28;20030;-81
2022/09/28 07:07:09;;;;;;;5.88;3.40;;;;;;;;;;5004062;28;20028;-82
2022/09/28 07:09:35;;;;;;;7.18;3.08;;;;;;;;;;5003933;28;20072;-81
2022/09/28 07:12:03;;;;;;;5.85;3.42;;;;;;;;;;5002705;28;20031;-82
2022/09/28 07:14:29;;;;;;;5.35;2.97;;;;;;;;;;4994625;28;20026;-82
2022/09/28 07:16:54;;;;;;;7.18;3.22;;;;;;;;;;4964778;28;20033;-81
2022/09/28 07:19:20;;;;;;;5.25;2.67;;;;;;;;;;4963016;28;20395;-81
2022/09/28 07:21:45;;;;;;;6.57;2.63;;;;;;;;;;4979462;28;20518;-81
2022/09/28 07:24:13;;;;;;;6.65;2.63;;;;;;;;;;4980321;28;20030;-81
2022/09/28 07:26:38;;;;;;;5.43;2.67;;;;;;;;;;4964852;28;20057;-81
2022/09/28 07:29:04;;;;;;;4.90;2.58;;;;;;;;;;4979916;28;20030;-82
2022/09/28 07:31:31;;;;;;;6.63;2.75;;;;;;;;;;4980319;28;20026;-80
2022/09/28 07:33:57;;;;;;;6.18;2.20;;;;;;;;;;4983646;28;20033;-81
2022/09/28 07:36:22;;;;;;;3.42;2.05;;;;;;;;;;4982326;28;20146;-81
2022/09/28 07:38:48;;;;;;;5.35;1.80;;;;;;;;;;4967457;28;20042;-81
2022/09/28 07:41:15;;;;;;;6.20;2.45;;;;;;;;;;4982947;28;20365;-81
2022/09/28 07:43:41;;;;;;;4.05;2.30;;;;;;;;;;4999201;28;20048;-81
2022/09/28 07:46:13;;;;;;;4.93;1.83;;;;;;;;;;4983911;28;20037;-81
2022/09/28 07:48:41;;;;;;;5.60;2.35;;;;;;;;;;4983523;28;20025;-80
2022/09/28 07:51:07;;;;;;;4.80;2.10;;;;;;;;;;5000401;28;20487;-81
2022/09/28 07:53:33;;;;;;;4.18;2.13;;;;;;;;;;4999972;28;20040;-81
2022/09/28 07:56:00;;;;;;;3.90;2.17;;;;;;;;;;5002886;28;20033;-81
2022/09/28 07:58:26;;;;;;;5.18;2.15;;;;;;;;;;5003128;28;20024;-81
2022/09/28 08:00:52;;;;;;;4.40;2.20;;;;;;;;;;5003202;28;20255;-81
2022/09/28 08:03:18;;;;;;;5.72;1.90;;;;;;;;;;4986950;28;20071;-80
2022/09/28 08:05:44;;;;;;;4.40;2.03;;;;;;;;;;4986955;28;20223;-81
2022/09/28 08:08:10;;;;;;;5.65;2.60;;;;;;;;;;4985917;28;20055;-81
2022/09/28 08:10:36;;;;;;;4.07;1.80;;;;;;;;;;5002638;28;20482;-81
2022/09/28 08:13:02;;;;;;;4.45;1.90;;;;;;;;;;4982139;28;20151;-81
2022/09/28 08:15:28;;;;;;;3.90;1.83;;;;;;;;;;4971320;28;20395;-80
2022/09/28 08:17:53;;;;;;;3.80;2.10;;;;;;;;;;4999540;28;20077;-81
2022/09/28 08:23:14;;;;;;;4.22;1.50;;;;;;;;;;4962782;28;20047;-81
2022/09/28 08:25:39;;;;;;;5.07;1.75;;;;;;;;;;4982352;28;20033;-81
2022/09/28 08:28:06;;;;;;;4.40;2.17;;;;;;;;;;4965046;28;20087;-81
2022/09/28 08:30:31;;;;;;;3.60;1.83;;;;;;;;;;4983028;28;20026;-81
2022/09/28 08:32:57;;;;;;;3.38;2.00;;;;;;;;;;4982518;28;20045;-83
2022/09/28 08:35:24;;;;;;;5.40;2.03;;;;;;;;;;4997998;28;20036;-81
2022/09/28 08:37:52;;;;;;;3.08;1.63;;;;;;;;;;4981771;28;20033;-81
2022/09/28 08:40:23;;;;;;;4.32;2.13;;;;;;;;;;4998863;28;20032;-82
2022/09/28 08:42:50;;;;;;;3.42;1.85;;;;;;;;;;4998620;28;20037;-80
2022/09/28 08:45:20;;;;;;;2.80;1.73;;;;;;;;;;4999635;28;20068;-81
2022/09/28 08:51:25;;;;;;;4.72;1.83;;;;;;;;;;5004492;28;20037;-81
2022/09/28 08:53:56;;;;;;;4.93;2.60;;;;;;;;;;4997725;28;20677;-80
2022/09/28 08:56:46;;;;;;;3.80;1.52;;;;;;;;;;5015148;28;20807;-81
2022/09/28 08:59:14;;;;;;;3.15;1.75;;;;;;;;;;5001849;28;20036;-79
2022/09/28 09:01:45;;;;;;;4.88;1.90;;;;;;;;;;5001497;28;20024;-79
2022/09/28 09:04:10;;;;;;;3.72;1.73;;;;;;;;;;4985957;28;20028;-79
2022/09/28 09:06:54;;;;;;;3.97;2.00;;;;;;;;;;5017784;28;20036;-80
2022/09/28 09:09:47;;;;;;;3.90;1.98;;;;;;;;;;5034373;28;20047;-79
2022/09/28 09:12:17;;;;;;;7.05;2.10;;;;;;;;;;5001570;28;20831;-80
2022/09/28 09:15:07;;;;;;;4.82;2.67;;;;;;;;;;4978392;28;20033;-79
2022/09/28 09:18:06;;;;;;;4.93;2.00;;;;;;;;;;5030877;28;20112;-79
2022/09/28 09:20:50;;;;;;;5.93;2.20;;;;;;;;;;4999983;28;20068;-80
2022/09/28 09:23:40;;;;;;;3.88;1.80;;;;;;;;;;5029897;28;20026;-80
2022/09/28 09:26:14;;;;;;;5.55;2.10;;;;;;;;;;4999012;28;20067;-80
2022/09/28 09:28:40;;;;;;;6.82;1.92;;;;;;;;;;5014805;28;20391;-80
2022/09/28 09:31:11;;;;;;;4.13;1.90;;;;;;;;;;5029063;28;20040;-79
2022/09/28 09:33:46;;;;;;;5.43;2.33;;;;;;;;;;4995267;28;20644;-79
2022/09/28 09:36:42;;;;;;;3.85;1.88;;;;;;;;;;4995043;28;20038;-79
2022/09/28 09:39:14;;;;;;;3.45;1.45;;;;;;;;;;4994378;28;20084;-79
2022/09/28 09:42:01;;;;;;;6.43;1.60;;;;;;;;;;4977675;28;20041;-79
2022/09/28 09:44:51;;;;;;;4.47;1.80;;;;;;;;;;4994025;28;20045;-79
2022/09/28 09:47:49;;;;;;;7.57;2.53;;;;;;;;;;5014521;28;20044;-79
2022/09/28 09:50:28;;;;;;;4.85;2.00;;;;;;;;;;4993476;28;20045;-79
2022/09/28 09:52:58;;;;;;;7.82;2.42;;;;;;;;;;4998901;28;20033;-79
2022/09/28 09:55:39;;;;;;;4.07;2.00;;;;;;;;;;5006733;28;20033;-79
2022/09/28 09:58:04;;;;;;;4.57;2.00;;;;;;;;;;5018263;28;20143;-79
2022/09/28 10:00:30;;;;;;;5.40;2.00;;;;;;;;;;5033788;28;20482;-79
2022/09/28 10:02:55;;;;;;;5.07;2.03;;;;;;;;;;5017130;28;20029;-79
2022/09/28 10:05:23;;;;;;;5.07;2.00;;;;;;;;;;5017244;28;20041;-79
2022/09/28 10:08:02;;;;;;;3.60;1.80;;;;;;;;;;5017487;28;20536;-79
2022/09/28 10:10:31;;;;;;;4.38;1.80;;;;;;;;;;5032865;28;20033;-79
2022/09/28 10:12:57;;;;;;;3.40;1.65;;;;;;;;;;5017462;28;20036;-79
2022/09/28 10:15:24;;;;;;;3.40;1.70;;;;;;;;;;5000949;28;20095;-79
2022/09/28 10:17:50;;;;;;;3.95;1.75;;;;;;;;;;4978232;28;20105;-79
2022/09/28 10:20:16;;;;;;;4.80;1.65;;;;;;;;;;4977600;28;20116;-79
2022/09/28 10:22:42;;;;;;;3.55;1.92;;;;;;;;;;5010035;28;20483;-79
2022/09/28 10:25:08;;;;;;;4.93;2.15;;;;;;;;;;4977277;28;20500;-79
2022/09/28 10:27:34;;;;;;;4.55;1.50;;;;;;;;;;5010259;28;20045;-79
2022/09/28 10:30:09;;;;;;;4.28;1.65;;;;;;;;;;4994245;28;20116;-79
2022/09/28 10:32:44;;;;;;;5.10;2.22;;;;;;;;;;5001668;28;20199;-79
2022/09/28 10:35:30;;;;;;;4.10;1.83;;;;;;;;;;4984334;28;20476;-79
2022/09/28 10:38:14;;;;;;;3.85;1.55;;;;;;;;;;5001599;28;20037;-78
2022/09/28 10:40:42;;;;;;;5.22;1.63;;;;;;;;;;5019049;28;20056;-79
2022/09/28 10:43:28;;;;;;;5.95;1.65;;;;;;;;;;5016385;28;20511;-79
2022/09/28 10:46:00;;;;;;;2.10;0.90;;;;;;;;;;5016261;28;20080;-79
2022/09/28 10:48:26;;;;;;;2.85;1.40;;;;;;;;;;4998947;28;20025;-79
2022/09/28 10:51:17;;;;;;;5.05;1.80;;;;;;;;;;4998593;28;20441;-80
2022/09/28 10:54:03;;;;;;;4.57;1.60;;;;;;;;;;4995892;28;20470;-79
2022/09/28 10:56:34;;;;;;;3.88;1.38;;;;;;;;;;5034580;28;20041;-79
2022/09/28 10:59:00;;;;;;;4.53;1.48;;;;;;;;;;5020111;28;20025;-79
2022/09/28 11:01:30;;;;;;;2.97;1.48;;;;;;;;;;5002014;28;20027;-79
2022/09/28 11:03:56;;;;;;;2.58;1.55;;;;;;;;;;5002031;28;20495;-80
2022/09/28 11:06:26;;;;;;;4.65;1.35;;;;;;;;;;5019015;28;20037;-79
2022/09/28 11:08:51;;;;;;;3.88;1.42;;;;;;;;;;5019859;28;20510;-79
2022/09/28 11:11:20;;;;;;;5.78;1.30;;;;;;;;;;5002663;28;20064;-79
2022/09/28 11:13:49;;;;;;;4.07;1.60;;;;;;;;;;5002980;28;20033;-79
2022/09/28 11:16:22;;;;;;;4.00;1.23;;;;;;;;;;4980668;28;20036;-80
2022/09/28 11:18:47;;;;;;;7.25;1.35;;;;;;;;;;4963831;28;20373;-80
2022/09/28 11:21:14;;;;;;;3.33;1.30;;;;;;;;;;4979456;28;20030;-79
2022/09/28 11:23:41;;;;;;;5.35;0.88;;;;;;;;;;4979719;28;20028;-80
2022/09/28 11:26:06;;;;;;;3.97;1.45;;;;;;;;;;4963795;28;20076;-80
2022/09/28 11:28:36;;;;;;;3.88;1.40;;;;;;;;;;4963806;28;20034;-79
2022/09/28 11:31:02;;;;;;;5.40;1.60;;;;;;;;;;4964120;28;20022;-79
2022/09/28 11:34:00;;;;;;;3.90;1.77;;;;;;;;;;4991141;28;20030;-79
2022/09/28 11:36:28;;;;;;;4.57;1.13;;;;;;;;;;4975931;28;20472;-79
2022/09/28 11:39:21;;;;;;;3.92;1.45;;;;;;;;;;5013318;28;20022;-79
2022/09/28 11:41:52;;;;;;;6.20;1.35;;;;;;;;;;4992697;28;20049;-79
2022/09/28 11:44:47;;;;;;;3.77;1.10;;;;;;;;;;4937483;28;1239701;-79
2022/09/28 11:47:37;;;;;;;2.75;1.08;;;;;;;;;;4984194;28;20038;-79
2022/09/28 11:50:17;;;;;;;6.10;1.00;;;;;;;;;;5032893;28;20519;-79
2022/09/28 11:52:49;;;;;;;11.20;1.77;;;;;;;;;;5000692;28;20037;-78
2022/09/28 11:55:18;;;;;;;9.55;1.50;;;;;;;;;;5017035;28;20061;-79
2022/09/28 11:57:45;;;;;;;6.80;1.83;;;;;;;;;;5016143;28;20096;-79
2022/09/28 12:00:19;;;;;;;3.95;1.10;;;;;;;;;;4998617;28;20080;-79
2022/09/28 12:03:08;;;;;;;8.95;2.03;;;;;;;;;;4990984;28;20063;-79
2022/09/28 12:05:43;;;;;;;7.68;1.30;;;;;;;;;;5018398;28;20025;-79
2022/09/28 12:08:19;;;;;;;4.30;1.40;;;;;;;;;;5003461;28;20191;-79
2022/09/28 12:10:54;;;;;;;3.95;1.02;;;;;;;;;;5001971;28;20316;-79
2022/09/28 12:13:27;;;;;;;7.18;1.52;;;;;;;;;;4987072;28;20206;-79
2022/09/28 12:16:02;;;;;;;7.07;1.38;;;;;;;;;;4969308;28;20129;-79
2022/09/28 12:18:46;;;;;;;3.72;1.00;;;;;;;;;;5015468;28;20225;-79
2022/09/28 12:21:44;;;;;;;4.97;1.00;;;;;;;;;;4998126;28;20026;-78
2022/09/28 12:24:16;;;;;;;6.30;1.30;;;;;;;;;;5000552;28;20124;-79
2022/09/28 12:26:59;;;;;;;5.65;1.58;;;;;;;;;;4998393;28;20434;-79
2022/09/28 12:29:40;;;;;;;3.95;1.40;;;;;;;;;;5000235;28;20033;-79
2022/09/28 12:32:15;;;;;;;3.70;0.82;;;;;;;;;;4998250;28;20032;-79
2022/09/28 12:34:41;;;;;;;5.85;1.13;;;;;;;;;;5014730;28;20476;-79
2022/09/28 12:37:22;;;;;;;4.72;1.17;;;;;;;;;;5014974;28;20033;-79
2022/09/28 12:40:18;;;;;;;6.22;1.55;;;;;;;;;;5015144;28;20060;-79
2022/09/28 12:42:48;;;;;;;6.32;1.05;;;;;;;;;;5030985;28;20041;-79
2022/09/28 12:45:26;;;;;;;5.40;1.23;;;;;;;;;;5015147;28;20112;-78
2022/09/28 12:48:16;;;;;;;2.65;0.80;;;;;;;;;;5014359;28;20554;-79
2022/09/28 12:51:03;;;;;;;4.25;1.30;;;;;;;;;;5013204;28;20502;-79
2022/09/28 12:53:51;;;;;;;7.78;1.33;;;;;;;;;;5000000;28;20033;-79
2022/09/28 12:56:45;;;;;;;3.75;0.90;;;;;;;;;;5001407;28;20033;-79
2022/09/28 12:59:25;;;;;;;4.45;1.33;;;;;;;;;;5037416;28;20039;-79
2022/09/28 13:02:11;;;;;;;5.20;1.42;;;;;;;;;;5001421;28;20061;-79
2022/09/28 13:04:43;;;;;;;9.93;1.65;;;;;;;;;;5019126;28;20037;-79
2022/09/28 13:07:23;;;;;;;7.47;1.30;;;;;;;;;;5032369;28;20025;-79
2022/09/28 13:10:02;;;;;;;3.80;0.90;;;;;;;;;;5014571;28;20260;-79
2022/09/28 13:12:38;;;;;;;4.88;1.10;;;;;;;;;;4999226;28;20056;-79
2022/09/28 13:15:12;;;;;;;4.75;0.90;;;;;;;;;;5007944;28;20037;-79
2022/09/28 13:18:13;;;;;;;2.50;1.00;;;;;;;;;;5014119;28;20078;-79
2022/09/28 13:20:57;;;;;;;5.95;1.27;;;;;;;;;;5020912;28;20065;-79
2022/09/28 13:23:29;;;;;;;3.72;0.95;;;;;;;;;;4998124;28;20040;-79
2022/09/28 13:26:09;;;;;;;3.28;1.10;;;;;;;;;;5014074;28;20037;-79
2022/09/28 13:28:36;;;;;;;4.45;1.35;;;;;;;;;;4982323;28;20033;-79
2022/09/28 13:31:01;;;;;;;4.80;1.20;;;;;;;;;;4997912;28;20064;-79
2022/09/28 13:33:35;;;;;;;6.10;1.65;;;;;;;;;;4994999;28;20073;-80
2022/09/28 13:36:04;;;;;;;6.60;1.10;;;;;;;;;;5010356;28;20034;-79
2022/09/28 13:38:45;;;;;;;5.85;1.63;;;;;;;;;;5010348;28;20041;-80
2022/09/28 13:41:12;;;;;;;7.43;1.27;;;;;;;;;;5011378;28;20144;-80
2022/09/28 13:44:08;;;;;;;2.95;1.30;;;;;;;;;;5026689;28;20038;-80
2022/09/28 13:46:37;;;;;;;6.60;1.27;;;;;;;;;;4980133;28;20053;-79
2022/09/28 13:49:15;;;;;;;6.53;1.15;;;;;;;;;;5027577;28;20077;-80
2022/09/28 13:51:59;;;;;;;4.88;1.23;;;;;;;;;;4999393;28;20026;-79
2022/09/28 13:55:00;;;;;;;3.22;0.80;;;;;;;;;;5016046;28;20410;-80
2022/09/28 13:57:45;;;;;;;7.80;1.02;;;;;;;;;;5000814;28;20073;-80
2022/09/28 14:00:20;;;;;;;4.45;1.00;;;;;;;;;;4985172;28;20117;-79
2022/09/28 14:02:48;;;;;;;3.50;0.88;;;;;;;;;;5012896;28;20129;-79
2022/09/28 14:05:23;;;;;;;6.78;1.88;;;;;;;;;;4980636;28;20047;-79
2022/09/28 14:08:09;;;;;;;4.75;1.02;;;;;;;;;;5031100;28;20088;-79
2022/09/28 14:10:50;;;;;;;6.03;0.90;;;;;;;;;;4982671;28;20036;-79
2022/09/28 14:13:57;;;;;;;6.63;1.40;;;;;;;;;;4997907;28;20037;-79
2022/09/28 14:16:23;;;;;;;5.28;1.25;;;;;;;;;;5010476;28;20381;-79
2022/09/28 14:19:11;;;;;;;9.70;1.58;;;;;;;;;;4976634;28;20026;-79
2022/09/28 14:21:46;;;;;;;4.63;1.40;;;;;;;;;;4985138;28;20041;-80
2022/09/28 14:24:33;;;;;;;7.53;1.58;;;;;;;;;;5010733;28;20050;-79
2022/09/28 14:27:17;;;;;;;7.45;1.75;;;;;;;;;;4994121;28;20040;-79
2022/09/28 14:29:42;;;;;;;6.47;1.63;;;;;;;;;;4977922;28;20045;-80
2022/09/28 14:32:08;;;;;;;5.93;0.95;;;;;;;;;;4978051;28;20032;-79
2022/09/28 14:34:42;;;;;;;7.35;1.38;;;;;;;;;;5010954;28;20034;-79
2022/09/28 14:43:33;;;;;;;8.43;1.40;;;;;;;;;;5002496;28;20046;-79
2022/09/28 14:46:25;;;;;;;7.97;1.75;;;;;;;;;;5013493;28;20129;-79
2022/09/28 14:49:13;;;;;;;11.80;2.27;;;;;;;;;;4995282;28;20072;-79
2022/09/28 14:51:42;;;;;;;9.73;2.72;;;;;;;;;;4983096;28;20033;-80
2022/09/28 14:54:09;;;;;;;9.93;3.72;;;;;;;;;;4977953;28;20033;-81
2022/09/28 14:56:55;;;;;;;155.27;55.00;;;;;;;;;;5011008;28;20554;-80
2022/09/28 14:59:25;;;;;;;89.72;32.85;;;;;;;;;;5029373;28;20061;-79
2022/09/28 15:02:09;;;;;;;90.25;31.65;;;;;;;;;;5029092;28;20060;-79
2022/09/28 15:04:37;;;;;;;65.20;26.00;;;;;;;;;;5013662;28;20135;-79
2022/09/28 15:07:03;;;;;;;65.45;24.33;;;;;;;;;;5013587;28;20496;-80
2022/09/28 15:09:35;;;;;;;43.47;18.52;;;;;;;;;;5013189;28;20037;-79
2022/09/28 15:12:01;;;;;;;;;;;;;;;;;;5012686;28;20052;-79
2022/09/28 15:14:30;;;;;;;46.17;14.05;;;;;;;;;;5029915;28;20279;-79
2022/09/28 15:17:00;;;;;;;22.52;8.98;;;;;;;;;;4998061;28;20052;-79
2022/09/28 15:19:42;;;;;;;27.70;9.73;;;;;;;;;;4998022;28;20080;-77
2022/09/28 15:22:15;;;;;;;20.33;8.55;;;;;;;;;;5033117;28;20124;-80
2022/09/28 15:24:44;;;;;;;22.98;8.27;;;;;;;;;;5000529;28;20480;-80
2022/09/28 15:27:17;;;;;;;17.30;6.28;;;;;;;;;;5016464;28;20101;-80
2022/09/28 15:30:14;;;;;;;22.38;7.43;;;;;;;;;;5001176;28;20534;-79
2022/09/28 15:32:39;;;;;;;25.45;7.97;;;;;;;;;;4999358;28;20116;-79